Phoenix, Arizona
Current Conditions -  °F | °C
As of 4:51 AM on Tuesday 27 Jan 2015 (Local Time) from KPHX Reporting Station
Broken Clouds Broken Clouds  
Wind Chill: 57°   Ceiling: 5000
Heat Index: 57°   Visibility: 10mi
Dew Point: 50°   Wind: 6mph
Humidity: 77%   Direction: 250°WSW
Pressure: 30.18"   Gusts: NA
Location:  33.45°N, 112.08°W
Report Text: KPHX 271151Z 25005KT 10SM BKN050 BKN070 14/10 A3018 RMK AO2 SLP212 60001 70001 T01390100 10150 20128 53003
Loading
Personal Weather Stations






























Interactive Weather Map New forecast layout! Learn more

10-Day Weather Forecast

Advertisements
Track Severe Weather on mobile